createdAt,value
2023-09-11T00:01:08.027Z,16.70
2023-09-11T00:03:35.715Z,16.60
2023-09-11T00:06:07.395Z,16.67
2023-09-11T00:08:35.383Z,16.35
2023-09-11T00:11:03.356Z,16.40
2023-09-11T00:13:32.311Z,15.02
2023-09-11T00:16:00.572Z,16.75
2023-09-11T00:18:28.208Z,15.32
2023-09-11T00:20:55.850Z,17.02
2023-09-11T00:23:23.512Z,16.55
2023-09-11T00:25:51.191Z,16.33
2023-09-11T00:28:18.859Z,17.10
2023-09-11T00:30:46.529Z,17.27
2023-09-11T00:33:14.325Z,18.08
2023-09-11T00:35:46.043Z,15.80
2023-09-11T00:38:13.758Z,17.38
2023-09-11T00:40:41.395Z,15.82
2023-09-11T00:43:08.970Z,17.70
2023-09-11T00:45:38.038Z,15.85
2023-09-11T00:48:06.839Z,16.35
2023-09-11T00:50:34.840Z,19.27
2023-09-11T00:53:04.034Z,18.15
2023-09-11T00:55:31.695Z,17.35
2023-09-11T00:58:00.532Z,18.13
2023-09-11T01:00:28.294Z,19.55
2023-09-11T01:02:59.016Z,19.00
2023-09-11T01:05:27.948Z,20.05
2023-09-11T01:07:55.680Z,18.48
2023-09-11T01:10:23.925Z,18.10
2023-09-11T01:12:52.049Z,18.58
2023-09-11T01:15:19.664Z,18.58
2023-09-11T01:18:09.131Z,20.23
2023-09-11T01:20:55.810Z,21.15
2023-09-11T01:23:35.627Z,20.35
2023-09-11T01:26:08.275Z,20.10
2023-09-11T01:29:03.698Z,20.70
2023-09-11T01:31:33.976Z,21.17
2023-09-11T01:34:03.266Z,21.23
2023-09-11T01:36:31.057Z,21.33
2023-09-11T01:38:59.114Z,22.70
2023-09-11T01:41:31.805Z,20.38
2023-09-11T01:44:02.572Z,23.70
2023-09-11T01:46:30.976Z,21.80
2023-09-11T01:48:59.953Z,22.67
2023-09-11T01:51:29.368Z,24.20
2023-09-11T01:53:58.018Z,24.05
2023-09-11T01:56:25.758Z,24.73
2023-09-11T01:58:53.350Z,23.50
2023-09-11T02:01:20.969Z,26.70
2023-09-11T02:03:48.745Z,24.30
2023-09-11T02:06:16.406Z,24.17
2023-09-11T02:08:44.257Z,26.90
2023-09-11T02:11:12.067Z,24.73
2023-09-11T02:13:39.719Z,23.48
2023-09-11T02:16:07.369Z,26.73
2023-09-11T02:18:35.050Z,24.92
2023-09-11T02:21:02.597Z,26.80
2023-09-11T02:23:30.192Z,26.83
2023-09-11T02:25:57.838Z,27.13
2023-09-11T02:28:25.721Z,27.83
2023-09-11T02:30:53.275Z,24.33
2023-09-11T02:33:20.937Z,27.98
2023-09-11T02:35:57.420Z,27.52
2023-09-11T02:38:25.669Z,27.17
2023-09-11T02:41:06.902Z,28.80
2023-09-11T02:43:36.422Z,28.33
2023-09-11T02:46:04.069Z,27.52
2023-09-11T02:48:33.156Z,26.02
2023-09-11T02:51:01.102Z,28.48
2023-09-11T02:53:28.807Z,29.98
2023-09-11T02:55:56.425Z,27.92
2023-09-11T02:58:24.060Z,31.08
2023-09-11T03:00:51.621Z,30.00
2023-09-11T03:03:19.304Z,29.02
2023-09-11T03:05:47.096Z,30.65
2023-09-11T03:08:14.807Z,30.25
2023-09-11T03:10:42.502Z,33.33
2023-09-11T03:13:10.118Z,32.03
2023-09-11T03:15:37.695Z,31.40
2023-09-11T03:18:05.438Z,31.38
2023-09-11T03:20:33.266Z,32.85
2023-09-11T03:23:01.597Z,35.53
2023-09-11T03:25:30.146Z,31.42
2023-09-11T03:27:57.731Z,34.58
2023-09-11T03:30:25.315Z,31.90
2023-09-11T03:32:53.200Z,33.88
2023-09-11T03:35:20.910Z,33.95
2023-09-11T03:37:48.497Z,32.47
2023-09-11T03:40:16.367Z,35.20
2023-09-11T03:42:43.911Z,34.53
2023-09-11T03:45:11.812Z,35.03
2023-09-11T03:47:39.535Z,33.40
2023-09-11T03:50:09.193Z,35.83
2023-09-11T03:52:36.792Z,34.08
2023-09-11T03:55:05.448Z,37.38
2023-09-11T03:57:33.263Z,35.13
2023-09-11T04:00:00.924Z,34.10
2023-09-11T04:02:28.558Z,34.42
2023-09-11T04:04:56.172Z,33.85
2023-09-11T04:07:23.901Z,36.92
2023-09-11T04:09:51.488Z,34.85
2023-09-11T04:12:19.594Z,35.78
2023-09-11T04:14:47.251Z,37.42
2023-09-11T04:17:14.824Z,34.95
2023-09-11T04:19:42.601Z,36.50
2023-09-11T04:22:10.480Z,36.65
2023-09-11T04:24:38.023Z,35.78
2023-09-11T04:27:06.454Z,35.50
2023-09-11T04:29:34.046Z,36.67
2023-09-11T04:32:01.792Z,36.00
2023-09-11T04:34:29.590Z,37.08
2023-09-11T04:36:57.303Z,35.80
2023-09-11T04:39:24.986Z,35.00
2023-09-11T04:41:52.570Z,37.88
2023-09-11T04:44:20.116Z,34.88
2023-09-11T04:46:47.753Z,36.65
2023-09-11T04:49:15.435Z,36.70
2023-09-11T04:51:43.412Z,33.53
2023-09-11T04:54:10.955Z,34.97
2023-09-11T04:56:38.870Z,34.80
2023-09-11T04:59:06.465Z,36.30
2023-09-11T05:01:34.851Z,33.30
2023-09-11T05:04:04.052Z,34.67
2023-09-11T05:06:32.400Z,34.13
2023-09-11T05:09:12.171Z,34.17
2023-09-11T05:11:40.398Z,31.58
2023-09-11T05:14:08.066Z,31.90
2023-09-11T05:16:35.731Z,31.98
2023-09-11T05:19:03.645Z,30.25
2023-09-11T05:21:32.037Z,30.60
2023-09-11T05:23:59.729Z,28.92
2023-09-11T05:26:27.407Z,26.95
2023-09-11T05:28:55.034Z,30.85
2023-09-11T05:31:22.652Z,29.33
2023-09-11T05:33:50.307Z,31.38
2023-09-11T05:36:18.189Z,31.15
2023-09-11T05:38:45.812Z,28.50
2023-09-11T05:41:13.516Z,28.05
2023-09-11T05:43:41.621Z,26.63
2023-09-11T05:46:10.048Z,28.23
2023-09-11T05:48:37.825Z,28.15
2023-09-11T05:51:05.536Z,27.95
2023-09-11T05:53:33.243Z,27.08
2023-09-11T05:56:01.268Z,27.45
2023-09-11T05:58:28.819Z,24.95
2023-09-11T06:00:56.525Z,26.15
2023-09-11T06:03:24.334Z,24.27
2023-09-11T06:05:52.125Z,24.38
2023-09-11T06:08:19.846Z,24.23
2023-09-11T06:10:47.693Z,25.42
2023-09-11T06:13:15.296Z,23.70
2023-09-11T06:15:43.015Z,22.50
2023-09-11T06:18:10.808Z,22.05
2023-09-11T06:20:38.851Z,17.08
2023-09-11T06:23:06.520Z,18.45
2023-09-11T06:25:34.068Z,17.98
2023-09-11T06:28:01.696Z,16.63
2023-09-11T06:30:29.401Z,16.08
2023-09-11T06:32:57.105Z,16.42
2023-09-11T06:35:25.092Z,15.27
2023-09-11T06:37:52.741Z,15.85
2023-09-11T06:40:20.377Z,12.98
2023-09-11T06:42:48.014Z,11.65
2023-09-11T06:45:15.824Z,12.18
2023-09-11T06:47:43.625Z,11.88
2023-09-11T06:50:12.652Z,12.30
2023-09-11T06:52:42.040Z,10.52
2023-09-11T06:55:10.192Z,12.18
2023-09-11T06:57:43.407Z,11.57
2023-09-11T07:00:15.972Z,10.15
2023-09-11T07:02:49.092Z,11.20
2023-09-11T07:05:21.384Z,10.95
2023-09-11T07:07:49.467Z,11.13
2023-09-11T07:10:30.117Z,10.75
2023-09-11T07:13:02.306Z,13.02
2023-09-11T07:15:30.035Z,12.80
2023-09-11T07:17:57.817Z,13.25
2023-09-11T07:20:25.492Z,11.07
2023-09-11T07:22:53.195Z,13.05
2023-09-11T07:25:24.014Z,13.13
2023-09-11T07:27:52.055Z,13.60
2023-09-11T07:30:19.682Z,13.02
2023-09-11T07:32:47.415Z,12.75
2023-09-11T07:35:15.208Z,13.50
2023-09-11T07:37:42.913Z,12.90
2023-09-11T07:40:11.062Z,14.63
2023-09-11T07:42:38.649Z,13.23
2023-09-11T07:45:07.676Z,11.32
2023-09-11T07:47:35.612Z,12.55
2023-09-11T07:50:03.295Z,13.93
2023-09-11T07:52:30.905Z,13.55
2023-09-11T07:55:00.042Z,12.80
2023-09-11T07:57:27.716Z,13.65
2023-09-11T07:59:55.419Z,12.85
2023-09-11T08:02:23.052Z,13.75
2023-09-11T08:04:51.052Z,13.93
2023-09-11T08:07:18.755Z,13.10
2023-09-11T08:09:47.626Z,13.77
2023-09-11T08:12:16.358Z,13.25
2023-09-11T08:14:44.515Z,16.48
2023-09-11T08:17:13.302Z,14.65
2023-09-11T08:19:41.126Z,14.90
2023-09-11T08:22:08.853Z,13.57
2023-09-11T08:24:36.513Z,13.65
2023-09-11T08:27:04.191Z,13.27
2023-09-11T08:29:31.846Z,13.65
2023-09-11T08:31:59.514Z,13.45
2023-09-11T08:34:27.137Z,13.32
2023-09-11T08:36:54.856Z,13.85
2023-09-11T08:39:22.495Z,14.18
2023-09-11T08:41:51.990Z,13.75
2023-09-11T08:44:19.650Z,13.35
2023-09-11T08:46:48.067Z,12.75
2023-09-11T08:49:23.018Z,12.18
2023-09-11T08:51:55.418Z,11.73
2023-09-11T08:54:30.406Z,12.48
2023-09-11T08:56:59.324Z,12.82
2023-09-11T08:59:31.027Z,12.48
2023-09-11T09:04:28.241Z,12.10
2023-09-11T09:06:56.760Z,11.90
2023-09-11T09:09:24.985Z,12.13
2023-09-11T09:11:53.505Z,11.55
2023-09-11T09:14:21.820Z,13.02
2023-09-11T09:16:50.253Z,13.18
2023-09-11T09:19:17.942Z,11.50
2023-09-11T09:22:03.661Z,11.65
2023-09-11T09:24:31.251Z,8.90
2023-09-11T09:27:00.325Z,8.57
2023-09-11T09:29:28.503Z,6.68
2023-09-11T09:31:57.203Z,8.18
2023-09-11T09:34:24.910Z,7.40
2023-09-11T09:36:57.119Z,7.75
2023-09-11T09:39:29.274Z,6.60
2023-09-11T09:41:59.194Z,6.82
2023-09-11T09:44:37.487Z,7.28
2023-09-11T09:47:08.930Z,7.93
2023-09-11T09:52:11.211Z,5.47
2023-09-11T09:54:50.463Z,7.13
2023-09-11T09:57:21.880Z,7.07
2023-09-11T10:02:30.948Z,8.40
2023-09-11T10:05:04.113Z,7.00
2023-09-11T10:07:43.026Z,7.43
2023-09-11T10:10:31.236Z,8.25
2023-09-11T10:13:11.239Z,8.10
2023-09-11T10:15:40.274Z,8.05
2023-09-11T10:18:10.558Z,8.70
2023-09-11T10:20:38.626Z,7.20
2023-09-11T10:23:08.006Z,7.15
2023-09-11T10:25:41.105Z,9.00
2023-09-11T10:28:10.599Z,9.50
2023-09-11T10:31:08.189Z,8.05
2023-09-11T10:33:38.245Z,8.60
2023-09-11T10:36:12.430Z,8.02
2023-09-11T10:38:40.863Z,7.10
2023-09-11T10:41:10.806Z,6.95
2023-09-11T10:43:39.107Z,8.07
2023-09-11T10:46:33.470Z,6.95
2023-09-11T10:49:01.836Z,5.70
2023-09-11T10:51:30.766Z,5.75
2023-09-11T10:53:58.498Z,6.60
2023-09-11T10:56:26.298Z,5.65
2023-09-11T10:58:54.402Z,5.72
2023-09-11T11:01:24.038Z,5.20
2023-09-11T11:03:52.276Z,4.78
2023-09-11T11:06:24.794Z,4.85
2023-09-11T11:08:52.982Z,4.18
2023-09-11T11:11:23.572Z,2.90
2023-09-11T11:14:16.000Z,4.40
2023-09-11T11:17:09.467Z,2.75
2023-09-11T11:19:40.655Z,2.33
2023-09-11T11:22:10.280Z,2.22
2023-09-11T11:24:56.279Z,3.67
2023-09-11T11:27:24.828Z,2.30
2023-09-11T11:29:54.193Z,2.05
2023-09-11T11:32:25.693Z,1.70
2023-09-11T11:34:53.602Z,1.70
2023-09-11T11:37:22.859Z,2.20
2023-09-11T11:39:51.037Z,2.13
2023-09-11T11:42:19.696Z,2.50
2023-09-11T11:44:47.550Z,2.15
2023-09-11T11:47:17.050Z,2.63
2023-09-11T11:49:46.509Z,2.85
2023-09-11T11:52:14.261Z,3.47
2023-09-11T11:54:43.242Z,2.50
2023-09-11T11:57:11.011Z,2.50
2023-09-11T11:59:43.143Z,3.03
2023-09-11T12:02:26.726Z,2.95
2023-09-11T12:04:56.259Z,2.75
2023-09-11T12:07:25.344Z,2.95
2023-09-11T12:09:53.249Z,3.47
2023-09-11T12:12:21.850Z,4.07
2023-09-11T12:14:49.631Z,4.63
2023-09-11T12:17:17.278Z,2.90
2023-09-11T12:19:44.943Z,4.25
2023-09-11T12:22:12.600Z,4.28
2023-09-11T12:24:40.291Z,3.70
2023-09-11T12:27:08.697Z,4.60
2023-09-11T12:29:36.613Z,4.45
2023-09-11T12:32:04.381Z,4.45
2023-09-11T12:34:50.459Z,4.70
2023-09-11T12:37:18.162Z,4.53
2023-09-11T12:39:45.864Z,4.70
2023-09-11T12:42:14.785Z,6.00
2023-09-11T12:44:43.259Z,5.68
2023-09-11T12:47:11.005Z,6.28
2023-09-11T12:49:39.123Z,7.47
2023-09-11T12:52:07.307Z,5.85
2023-09-11T12:54:34.968Z,6.05
2023-09-11T12:57:03.247Z,7.05
2023-09-11T12:59:31.035Z,8.30
2023-09-11T13:01:59.628Z,8.98
2023-09-11T13:04:30.592Z,7.80
2023-09-11T13:06:58.261Z,6.60
2023-09-11T13:09:26.318Z,8.32
2023-09-11T13:11:53.979Z,6.55
2023-09-11T13:14:21.619Z,5.88
2023-09-11T13:16:49.515Z,5.93
2023-09-11T13:19:18.252Z,9.13
2023-09-11T13:21:46.147Z,8.95
2023-09-11T13:24:13.977Z,9.00
2023-09-11T13:26:43.615Z,11.90
2023-09-11T13:29:11.386Z,12.35
2023-09-11T13:31:39.000Z,12.38
2023-09-11T13:34:06.839Z,12.20
2023-09-11T13:36:34.743Z,15.30
2023-09-11T13:39:02.569Z,13.52
2023-09-11T13:41:30.254Z,13.27
2023-09-11T13:43:57.813Z,11.90
2023-09-11T13:46:25.545Z,13.75
2023-09-11T13:48:53.338Z,14.18
2023-09-11T13:51:21.009Z,14.63
2023-09-11T13:53:48.721Z,14.60
2023-09-11T13:56:16.400Z,14.90
2023-09-11T13:58:45.368Z,14.43
2023-09-11T14:01:15.225Z,12.35
2023-09-11T14:03:42.947Z,12.23
2023-09-11T14:06:10.762Z,14.18
2023-09-11T14:08:38.501Z,14.82
2023-09-11T14:11:06.100Z,13.30
2023-09-11T14:13:33.654Z,12.65
2023-09-11T14:16:01.278Z,13.32
2023-09-11T14:18:29.280Z,12.52
2023-09-11T14:20:57.064Z,12.88
2023-09-11T14:23:24.749Z,11.55
2023-09-11T14:25:52.352Z,13.50
2023-09-11T14:28:19.958Z,12.43
2023-09-11T14:30:47.840Z,12.90
2023-09-11T14:33:15.652Z,12.23
2023-09-11T14:35:43.279Z,12.52
2023-09-11T14:38:10.962Z,12.73
2023-09-11T14:40:38.885Z,15.20
2023-09-11T14:43:06.470Z,14.38
2023-09-11T14:45:34.037Z,14.18
2023-09-11T14:48:01.769Z,15.90
2023-09-11T14:50:29.407Z,14.85
2023-09-11T14:52:56.992Z,16.35
2023-09-11T14:55:24.916Z,17.25
2023-09-11T14:57:52.555Z,16.70
2023-09-11T15:00:20.335Z,16.08
2023-09-11T15:02:48.081Z,15.48
2023-09-11T15:05:15.909Z,15.60
2023-09-11T15:07:43.784Z,16.70
2023-09-11T15:10:12.091Z,14.88
2023-09-11T15:12:39.625Z,17.95
2023-09-11T15:15:07.976Z,18.23
2023-09-11T15:17:35.733Z,15.82
2023-09-11T15:20:03.445Z,16.52
2023-09-11T15:22:31.004Z,16.35
2023-09-11T15:24:59.738Z,17.25
2023-09-11T15:27:27.469Z,15.70
2023-09-11T15:29:55.043Z,17.13
2023-09-11T15:32:22.673Z,15.30
2023-09-11T15:34:51.049Z,17.80
2023-09-11T15:37:19.328Z,15.48
2023-09-11T15:39:48.389Z,14.77
2023-09-11T15:42:16.026Z,17.58
2023-09-11T15:44:43.664Z,14.85
2023-09-11T15:47:11.316Z,17.48
2023-09-11T15:49:39.635Z,16.40
2023-09-11T15:52:07.719Z,16.20
2023-09-11T15:54:35.578Z,15.02
2023-09-11T15:57:03.435Z,16.75
2023-09-11T15:59:31.525Z,15.48
2023-09-11T16:01:59.420Z,15.02
2023-09-11T16:04:27.294Z,16.48
2023-09-11T16:06:55.654Z,14.55
2023-09-11T16:09:23.410Z,14.43
2023-09-11T16:11:52.228Z,14.95
2023-09-11T16:14:20.121Z,15.10
2023-09-11T16:16:51.496Z,16.10
2023-09-11T16:19:22.330Z,17.40
2023-09-11T16:21:50.462Z,15.27
2023-09-11T16:24:18.419Z,15.07
2023-09-11T16:26:46.145Z,15.70
2023-09-11T16:29:14.912Z,15.15
2023-09-11T16:31:42.670Z,15.05
2023-09-11T16:34:11.624Z,15.02
2023-09-11T16:36:39.927Z,14.40
2023-09-11T16:39:07.720Z,13.32
2023-09-11T16:41:35.656Z,16.27
2023-09-11T16:44:03.366Z,15.43
2023-09-11T16:46:31.061Z,14.70
2023-09-11T16:48:58.740Z,15.30
2023-09-11T16:51:26.531Z,16.58
2023-09-11T16:53:54.233Z,16.02
2023-09-11T16:56:21.927Z,16.63
2023-09-11T16:58:49.610Z,16.77
2023-09-11T17:01:19.378Z,16.92
2023-09-11T17:03:47.105Z,17.80
2023-09-11T17:06:14.711Z,17.77
2023-09-11T17:08:42.685Z,17.95
2023-09-11T17:11:10.420Z,18.48
2023-09-11T17:13:38.023Z,17.48
2023-09-11T17:16:05.841Z,18.15
2023-09-11T17:18:33.583Z,17.92
2023-09-11T17:21:05.585Z,17.38
2023-09-11T17:26:00.641Z,15.95
2023-09-11T17:28:28.275Z,17.00
2023-09-11T17:30:55.922Z,15.68
2023-09-11T17:33:23.709Z,16.25
2023-09-11T17:35:51.529Z,16.73
2023-09-11T17:38:19.547Z,15.38
2023-09-11T17:40:47.093Z,16.95
2023-09-11T17:43:14.757Z,16.42
2023-09-11T17:45:42.336Z,16.38
2023-09-11T17:48:10.640Z,15.60
2023-09-11T17:50:38.363Z,16.48
2023-09-11T17:53:05.993Z,17.58
2023-09-11T17:55:33.551Z,17.20
2023-09-11T17:58:01.153Z,17.17
2023-09-11T18:00:28.917Z,15.43
2023-09-11T18:02:56.705Z,16.23
2023-09-11T18:05:24.340Z,17.08
2023-09-11T18:07:51.996Z,15.57
2023-09-11T18:10:19.621Z,15.27
2023-09-11T18:12:47.198Z,15.27
2023-09-11T18:15:14.965Z,16.50
2023-09-11T18:17:43.817Z,14.57
2023-09-11T18:20:12.142Z,14.23
2023-09-11T18:22:39.701Z,14.77
2023-09-11T18:25:07.386Z,14.45
2023-09-11T18:27:36.979Z,14.65
2023-09-11T18:30:05.653Z,14.27
2023-09-11T18:32:33.327Z,14.82
2023-09-11T18:35:01.028Z,15.45
2023-09-11T18:37:28.672Z,14.75
2023-09-11T18:39:56.445Z,15.68
2023-09-11T18:42:24.087Z,15.30
2023-09-11T18:44:51.785Z,14.93
2023-09-11T18:47:19.351Z,16.83
2023-09-11T18:49:46.943Z,14.77
2023-09-11T18:52:14.773Z,14.82
2023-09-11T18:54:43.541Z,13.95
2023-09-11T18:57:11.488Z,16.42
2023-09-11T18:59:39.056Z,15.60
2023-09-11T19:02:07.197Z,14.75
2023-09-11T19:04:34.888Z,17.30
2023-09-11T19:07:02.538Z,17.02
2023-09-11T19:09:31.242Z,17.92
2023-09-11T19:11:58.920Z,17.52
2023-09-11T19:14:27.057Z,17.83
2023-09-11T19:16:54.778Z,15.38
2023-09-11T19:19:22.388Z,15.90
2023-09-11T19:21:49.950Z,19.40
2023-09-11T19:24:17.598Z,18.08
2023-09-11T19:26:45.283Z,16.58
2023-09-11T19:29:13.310Z,17.35
2023-09-11T19:31:40.989Z,17.40
2023-09-11T19:34:08.835Z,16.50
2023-09-11T19:36:36.551Z,19.10
2023-09-11T19:39:04.542Z,18.20
2023-09-11T19:41:32.370Z,18.50
2023-09-11T19:43:59.909Z,17.98
2023-09-11T19:46:27.594Z,16.15
2023-09-11T19:48:55.303Z,19.33
2023-09-11T19:51:25.432Z,19.38
2023-09-11T19:53:53.096Z,18.40
2023-09-11T19:56:21.662Z,19.20
2023-09-11T19:58:49.290Z,19.42
2023-09-11T20:01:17.946Z,18.98
2023-09-11T20:03:45.671Z,20.40
2023-09-11T20:06:14.689Z,20.73
2023-09-11T20:08:42.693Z,20.42
2023-09-11T20:11:10.493Z,20.00
2023-09-11T20:13:38.052Z,20.10
2023-09-11T20:16:05.810Z,20.13
2023-09-11T20:18:34.622Z,19.98
2023-09-11T20:21:02.984Z,19.42
2023-09-11T20:23:30.666Z,20.00
2023-09-11T20:25:58.284Z,20.75
2023-09-11T20:28:25.925Z,20.83
2023-09-11T20:30:53.521Z,19.23
2023-09-11T20:33:21.170Z,19.30
2023-09-11T20:35:48.932Z,20.38
2023-09-11T20:38:21.459Z,21.50
2023-09-11T20:40:52.152Z,22.23
2023-09-11T20:43:19.700Z,22.63
2023-09-11T20:45:47.321Z,23.10
2023-09-11T20:48:15.013Z,23.65
2023-09-11T20:50:42.593Z,24.58
2023-09-11T20:53:10.161Z,24.05
2023-09-11T20:55:37.703Z,23.92
2023-09-11T20:58:05.919Z,25.05
2023-09-11T21:00:33.774Z,24.83
2023-09-11T21:03:01.478Z,24.73
2023-09-11T21:05:29.195Z,26.80
2023-09-11T21:07:57.519Z,29.83
2023-09-11T21:10:25.174Z,29.20
2023-09-11T21:12:57.972Z,30.10
2023-09-11T21:15:27.530Z,32.85
2023-09-11T21:17:55.474Z,32.42
2023-09-11T21:20:23.224Z,33.92
2023-09-11T21:22:50.850Z,33.67
2023-09-11T21:25:18.473Z,35.15
2023-09-11T21:27:46.462Z,33.65
2023-09-11T21:30:14.271Z,35.35
2023-09-11T21:32:41.931Z,33.28
2023-09-11T21:35:09.736Z,33.35
2023-09-11T21:37:37.321Z,34.30
2023-09-11T21:40:06.180Z,33.65
2023-09-11T21:42:34.098Z,33.45
2023-09-11T21:45:01.953Z,33.85
2023-09-11T21:47:29.627Z,34.80
2023-09-11T21:49:57.242Z,35.63
2023-09-11T21:52:25.024Z,33.10
2023-09-11T21:54:52.576Z,34.72
2023-09-11T21:57:20.197Z,33.65
2023-09-11T21:59:48.171Z,34.20
2023-09-11T22:02:16.557Z,34.20
2023-09-11T22:04:44.268Z,36.17
2023-09-11T22:07:12.044Z,36.38
2023-09-11T22:09:40.087Z,32.10
2023-09-11T22:12:07.848Z,35.88
2023-09-11T22:14:35.459Z,36.92
2023-09-11T22:17:03.046Z,37.28
2023-09-11T22:19:30.594Z,37.50
2023-09-11T22:21:58.286Z,36.20
2023-09-11T22:24:25.975Z,38.08
2023-09-11T22:26:53.976Z,37.90
2023-09-11T22:29:21.656Z,40.47
2023-09-11T22:31:50.415Z,39.60
2023-09-11T22:34:18.086Z,40.83
2023-09-11T22:36:45.775Z,40.90
2023-09-11T22:39:13.424Z,40.40
2023-09-11T22:41:41.048Z,40.35
2023-09-11T22:44:08.700Z,40.22
2023-09-11T22:46:36.658Z,42.95
2023-09-11T22:49:04.402Z,39.65
2023-09-11T22:51:32.067Z,40.30
2023-09-11T22:53:59.656Z,41.42
2023-09-11T22:56:27.285Z,43.65
2023-09-11T22:58:54.816Z,41.55
2023-09-11T23:01:28.030Z,42.72
2023-09-11T23:03:56.107Z,43.28
2023-09-11T23:06:23.836Z,40.97
2023-09-11T23:08:51.376Z,42.63
2023-09-11T23:11:18.907Z,43.97
2023-09-11T23:13:46.491Z,44.20
2023-09-11T23:16:14.082Z,43.47
2023-09-11T23:18:41.946Z,44.72
2023-09-11T23:21:13.748Z,44.55
2023-09-11T23:23:46.029Z,46.15
2023-09-11T23:26:13.707Z,46.90
2023-09-11T23:28:41.645Z,43.92
2023-09-11T23:31:09.545Z,44.33
2023-09-11T23:33:37.465Z,42.83
2023-09-11T23:36:05.722Z,45.63
2023-09-11T23:38:33.347Z,41.38
2023-09-11T23:41:01.047Z,40.08
2023-09-11T23:43:36.446Z,42.97
2023-09-11T23:46:05.209Z,44.22
2023-09-11T23:48:33.443Z,45.22
2023-09-11T23:51:01.361Z,42.53
2023-09-11T23:53:29.049Z,44.53
2023-09-11T23:55:56.659Z,45.45
2023-09-11T23:58:24.427Z,44.70
